MET'MAP v2.0
soon released !

Expected late october,
this new version will be
more efficient, smarter,
and hosted on a brand new
server x3 powerfull...
...and still free !


Not compatible ?
Try the mobile version !

LOG IN : | Subscribe | Disclaimer | Who is Orbifly ? |
ICAO code :

TAF - LFLW Aurillac - 05 Jun 2020 09:39 UTC
Data Sources :     NOAA   


- Airport Elevation : 2096 ft
- IATA code : AUR
- No reported NOTAMs.


LFLW - Aurillac

Latest METAR recorded : 2020/06/05 07:00 LFLW 050700Z AUTO 29007KT 260V330 8000 -DZ ////// 09/07 Q1009
NO TAF


MET'MAP, your aeronautical weather chart ! - Copyright ORBIFLY December 2007

Programming & Development : Alexandra Zaïnal
Co-Developer : Marc-Olivier Méhu
Technical & hardware support : Manuel Goepfert
Concept & Financing : Baudouin d'Aumeries